createdAt,value
2022-11-03T00:01:37.631Z,9.43
2022-11-03T00:04:10.653Z,9.33
2022-11-03T00:06:40.004Z,8.43
2022-11-03T00:09:11.852Z,12.67
2022-11-03T00:11:43.838Z,26.23
2022-11-03T00:14:17.629Z,9.67
2022-11-03T00:16:46.626Z,10.83
2022-11-03T00:19:17.386Z,11.53
2022-11-03T00:21:46.915Z,34.90
2022-11-03T00:24:17.806Z,20.10
2022-11-03T00:26:46.335Z,33.47
2022-11-03T00:29:16.337Z,27.47
2022-11-03T00:31:45.861Z,41.63
2022-11-03T00:34:16.768Z,13.30
2022-11-03T00:36:49.481Z,17.60
2022-11-03T00:39:19.428Z,23.13
2022-11-03T00:41:49.389Z,12.27
2022-11-03T00:44:17.916Z,17.17
2022-11-03T00:46:50.453Z,13.57
2022-11-03T00:49:20.027Z,9.63
2022-11-03T00:51:48.720Z,9.87
2022-11-03T00:54:26.290Z,10.40
2022-11-03T00:56:54.990Z,9.13
2022-11-03T00:59:23.952Z,8.57
2022-11-03T01:01:52.863Z,10.00
2022-11-03T01:04:50.442Z,9.13
2022-11-03T01:07:22.530Z,18.30
2022-11-03T01:09:53.939Z,17.57
2022-11-03T01:12:23.499Z,11.87
2022-11-03T01:14:54.117Z,10.47
2022-11-03T01:17:24.866Z,13.50
2022-11-03T01:19:54.248Z,5.37
2022-11-03T01:22:24.848Z,9.07
2022-11-03T01:24:54.734Z,15.60
2022-11-03T01:27:23.620Z,8.87
2022-11-03T01:29:52.057Z,18.37
2022-11-03T01:32:20.580Z,13.83
2022-11-03T01:34:49.532Z,19.27
2022-11-03T01:37:17.992Z,16.30
2022-11-03T01:39:48.222Z,9.73
2022-11-03T01:42:18.076Z,10.00
2022-11-03T01:44:50.049Z,10.73
2022-11-03T01:47:26.570Z,13.93
2022-11-03T01:50:00.179Z,9.70
2022-11-03T01:52:34.225Z,15.17
2022-11-03T01:55:08.399Z,11.27
2022-11-03T01:57:42.588Z,7.30
2022-11-03T02:00:16.405Z,5.83
2022-11-03T02:02:46.931Z,13.73
2022-11-03T02:05:21.313Z,12.77
2022-11-03T02:07:55.370Z,12.03
2022-11-03T02:10:25.066Z,10.87
2022-11-03T02:12:55.388Z,10.77
2022-11-03T02:15:29.290Z,8.97
2022-11-03T02:17:59.705Z,8.70
2022-11-03T02:20:30.985Z,19.20
2022-11-03T02:23:21.515Z,15.13
2022-11-03T02:25:53.005Z,8.30
2022-11-03T02:28:23.832Z,11.47
2022-11-03T02:31:00.846Z,11.53
2022-11-03T02:33:36.540Z,6.80
2022-11-03T02:36:13.501Z,9.07
2022-11-03T02:38:48.781Z,12.03
2022-11-03T02:41:20.082Z,9.17
2022-11-03T02:43:50.122Z,10.53
2022-11-03T02:46:21.378Z,7.07
2022-11-03T02:48:50.489Z,10.07
2022-11-03T02:51:18.904Z,10.37
2022-11-03T02:53:55.730Z,8.17
2022-11-03T02:56:26.349Z,14.83
2022-11-03T02:58:59.808Z,9.53
2022-11-03T03:01:40.120Z,6.03
2022-11-03T03:04:11.925Z,14.37
2022-11-03T03:06:45.486Z,7.47
2022-11-03T03:09:20.421Z,10.63
2022-11-03T03:11:51.896Z,7.43
2022-11-03T03:14:24.524Z,8.30
2022-11-03T03:17:00.590Z,7.13
2022-11-03T03:19:38.618Z,7.03
2022-11-03T03:22:16.581Z,6.67
2022-11-03T03:24:51.174Z,8.67
2022-11-03T03:27:25.689Z,12.00
2022-11-03T03:29:57.748Z,9.13
2022-11-03T03:32:29.408Z,8.40
2022-11-03T03:35:03.092Z,6.07
2022-11-03T03:37:33.055Z,4.77
2022-11-03T03:40:06.667Z,13.60
2022-11-03T03:42:46.767Z,12.80
2022-11-03T03:45:16.802Z,10.80
2022-11-03T03:48:05.408Z,11.23
2022-11-03T03:50:40.555Z,8.87
2022-11-03T03:53:14.168Z,8.00
2022-11-03T03:55:46.888Z,7.83
2022-11-03T03:58:17.835Z,7.50
2022-11-03T04:00:46.638Z,13.93
2022-11-03T04:03:18.453Z,14.60
2022-11-03T04:05:48.470Z,15.17
2022-11-03T04:08:19.046Z,61.37
2022-11-03T04:11:04.181Z,17.23
2022-11-03T04:13:53.640Z,11.80
2022-11-03T04:16:41.148Z,7.80
2022-11-03T04:19:29.044Z,9.93
2022-11-03T04:22:16.287Z,6.33
2022-11-03T04:24:45.312Z,9.00
2022-11-03T04:27:34.034Z,11.57
2022-11-03T04:30:17.830Z,7.67
2022-11-03T04:32:49.856Z,7.37
2022-11-03T04:35:20.556Z,6.30
2022-11-03T04:37:55.868Z,12.93
2022-11-03T04:40:29.415Z,6.27
2022-11-03T04:42:58.959Z,5.90
2022-11-03T04:45:38.341Z,9.33
2022-11-03T04:48:14.201Z,6.77
2022-11-03T04:50:46.806Z,10.17
2022-11-03T04:53:18.012Z,8.10
2022-11-03T04:55:48.342Z,8.00
2022-11-03T04:58:21.618Z,8.70
2022-11-03T05:00:54.254Z,9.27
2022-11-03T05:03:25.963Z,8.50
2022-11-03T05:05:56.777Z,11.17
2022-11-03T05:08:26.384Z,7.53
2022-11-03T05:10:55.591Z,9.30
2022-11-03T05:13:26.424Z,9.27
2022-11-03T05:16:04.482Z,9.73
2022-11-03T05:18:37.059Z,9.83
2022-11-03T05:21:09.650Z,9.97
2022-11-03T05:23:41.451Z,10.77
2022-11-03T05:26:16.088Z,9.60
2022-11-03T05:28:49.778Z,6.17
2022-11-03T05:31:27.276Z,11.83
2022-11-03T05:33:59.123Z,15.83
2022-11-03T05:36:32.096Z,10.47
2022-11-03T05:39:03.071Z,10.23
2022-11-03T05:41:33.735Z,10.00
2022-11-03T05:44:19.114Z,9.67
2022-11-03T05:46:49.197Z,11.60
2022-11-03T05:49:20.468Z,7.77
2022-11-03T05:51:49.105Z,20.60
2022-11-03T05:54:23.888Z,21.83
2022-11-03T05:56:55.200Z,29.27
2022-11-03T05:59:28.224Z,25.23
2022-11-03T06:02:03.520Z,23.23
2022-11-03T06:04:37.008Z,16.13
2022-11-03T06:07:28.547Z,16.20
2022-11-03T06:09:57.398Z,9.83
2022-11-03T06:12:27.450Z,13.90
2022-11-03T06:14:56.108Z,9.43
2022-11-03T06:17:29.926Z,12.57
2022-11-03T06:20:02.535Z,12.73
2022-11-03T06:22:38.402Z,13.40
2022-11-03T06:25:21.267Z,18.17
2022-11-03T06:27:50.353Z,20.70
2022-11-03T06:30:25.737Z,13.17
2022-11-03T06:32:59.592Z,10.80
2022-11-03T06:35:32.345Z,12.03
2022-11-03T06:38:02.503Z,9.10
2022-11-03T06:40:40.274Z,10.50
2022-11-03T06:43:37.024Z,11.23
2022-11-03T06:46:14.298Z,9.13
2022-11-03T06:48:45.785Z,11.53
2022-11-03T06:51:20.835Z,8.53
2022-11-03T06:53:56.802Z,12.57
2022-11-03T06:56:29.864Z,8.20
2022-11-03T06:58:59.738Z,9.97
2022-11-03T07:01:33.553Z,11.40
2022-11-03T07:04:13.986Z,14.77
2022-11-03T07:06:50.496Z,20.53
2022-11-03T07:09:25.301Z,12.77
2022-11-03T07:11:56.210Z,18.23
2022-11-03T07:14:29.182Z,13.90
2022-11-03T07:17:00.315Z,18.30
2022-11-03T07:22:24.107Z,11.00
2022-11-03T07:24:56.616Z,12.17
2022-11-03T07:27:28.396Z,7.87
2022-11-03T07:30:01.054Z,11.40
2022-11-03T07:32:34.577Z,9.40
2022-11-03T07:35:07.219Z,14.50
2022-11-03T07:37:36.533Z,14.23
2022-11-03T07:40:07.052Z,9.33
2022-11-03T07:42:35.946Z,12.03
2022-11-03T07:45:24.507Z,11.00
2022-11-03T07:47:53.249Z,13.37
2022-11-03T07:50:23.217Z,11.93
2022-11-03T07:52:54.428Z,11.13
2022-11-03T07:55:23.387Z,14.80
2022-11-03T07:57:52.143Z,21.07
2022-11-03T08:00:22.990Z,21.70
2022-11-03T08:02:54.200Z,14.87
2022-11-03T08:05:24.638Z,10.97
2022-11-03T08:07:53.483Z,7.77
2022-11-03T08:10:22.555Z,11.07
2022-11-03T08:12:51.110Z,12.10
2022-11-03T08:15:19.745Z,7.50
2022-11-03T08:17:52.121Z,9.63
2022-11-03T08:20:26.091Z,17.10
2022-11-03T08:23:19.548Z,13.70
2022-11-03T08:25:43.760Z,13.90
2022-11-03T08:28:12.390Z,17.90
2022-11-03T08:30:41.183Z,13.83
2022-11-03T08:33:10.137Z,11.33
2022-11-03T08:35:40.342Z,21.80
2022-11-03T08:38:09.370Z,14.37
2022-11-03T08:40:38.575Z,9.17
2022-11-03T08:43:07.318Z,12.83
2022-11-03T08:45:36.107Z,11.33
2022-11-03T08:48:05.665Z,13.00
2022-11-03T08:50:34.687Z,19.23
2022-11-03T08:53:04.829Z,11.30
2022-11-03T08:55:33.679Z,11.97
2022-11-03T08:58:02.376Z,12.37
2022-11-03T09:00:31.207Z,22.07
2022-11-03T09:03:00.797Z,12.93
2022-11-03T09:05:29.845Z,14.87
2022-11-03T09:13:59.979Z,33.37
2022-11-03T09:16:29.233Z,19.73
2022-11-03T09:18:59.613Z,15.57
2022-11-03T09:21:28.442Z,14.90
2022-11-03T09:27:07.326Z,21.33
2022-11-03T09:29:51.930Z,30.27
2022-11-03T09:32:27.841Z,13.90
2022-11-03T09:35:12.371Z,10.60
2022-11-03T09:37:41.356Z,18.57
2022-11-03T09:40:12.395Z,18.07
2022-11-03T09:42:43.656Z,30.00
2022-11-03T09:45:12.706Z,23.37
2022-11-03T09:47:43.448Z,20.23
2022-11-03T09:50:16.730Z,33.47
2022-11-03T09:52:51.104Z,38.87
2022-11-03T09:55:28.855Z,19.40
2022-11-03T09:58:02.060Z,19.73
2022-11-03T10:00:31.191Z,17.73
2022-11-03T10:02:59.894Z,20.63
2022-11-03T10:05:29.590Z,19.30
2022-11-03T10:08:03.291Z,17.73
2022-11-03T10:10:33.050Z,19.33
2022-11-03T10:13:09.294Z,19.80
2022-11-03T10:15:42.294Z,15.27
2022-11-03T10:18:12.803Z,15.23
2022-11-03T10:20:41.797Z,18.23
2022-11-03T10:23:11.318Z,19.07
2022-11-03T10:25:41.502Z,17.70
2022-11-03T10:28:17.162Z,22.27
2022-11-03T10:31:11.862Z,20.23
2022-11-03T10:33:43.054Z,27.70
2022-11-03T10:36:25.758Z,17.83
2022-11-03T10:38:55.058Z,15.73
2022-11-03T10:41:25.145Z,23.43
2022-11-03T10:44:08.295Z,20.47
2022-11-03T10:46:50.390Z,15.23
2022-11-03T10:49:45.178Z,19.90
2022-11-03T10:52:21.322Z,18.87
2022-11-03T10:54:50.804Z,20.47
2022-11-03T10:57:21.013Z,18.17
2022-11-03T10:59:54.408Z,22.67
2022-11-03T11:02:26.910Z,13.13
2022-11-03T11:05:00.984Z,17.73
2022-11-03T11:07:35.031Z,14.17
2022-11-03T11:10:15.651Z,14.70
2022-11-03T11:13:07.411Z,18.53
2022-11-03T11:15:44.062Z,12.77
2022-11-03T11:18:33.003Z,18.77
2022-11-03T11:21:03.358Z,14.00
2022-11-03T11:23:47.266Z,18.30
2022-11-03T11:26:33.323Z,21.77
2022-11-03T11:29:41.070Z,18.20
2022-11-03T11:32:42.446Z,21.63
2022-11-03T11:35:17.676Z,26.13
2022-11-03T11:37:47.288Z,20.27
2022-11-03T11:40:36.610Z,17.77
2022-11-03T11:43:35.181Z,14.77
2022-11-03T11:46:28.400Z,15.43
2022-11-03T11:49:17.353Z,10.73
2022-11-03T11:51:48.036Z,13.43
2022-11-03T11:54:21.073Z,23.20
2022-11-03T11:56:51.149Z,14.90
2022-11-03T11:59:26.285Z,13.93
2022-11-03T12:01:57.965Z,15.23
2022-11-03T12:04:31.605Z,24.33
2022-11-03T12:07:02.728Z,13.27
2022-11-03T12:09:31.363Z,11.63
2022-11-03T12:12:08.587Z,11.57
2022-11-03T12:14:38.787Z,11.67
2022-11-03T12:17:38.067Z,18.53
2022-11-03T12:20:26.057Z,18.47
2022-11-03T12:22:56.245Z,24.10
2022-11-03T12:25:37.016Z,15.30
2022-11-03T12:28:06.455Z,14.05
2022-11-03T12:30:39.612Z,14.10
2022-11-03T12:33:10.944Z,20.58
2022-11-03T12:35:39.704Z,17.42
2022-11-03T12:38:09.811Z,13.20
2022-11-03T12:40:38.337Z,17.23
2022-11-03T12:43:09.261Z,16.33
2022-11-03T12:45:38.215Z,16.50
2022-11-03T12:48:07.497Z,16.35
2022-11-03T12:50:37.658Z,16.83
2022-11-03T12:53:08.257Z,14.77
2022-11-03T12:55:42.165Z,18.05
2022-11-03T12:58:16.890Z,22.00
2022-11-03T13:00:52.148Z,17.02
2022-11-03T13:03:23.962Z,17.58
2022-11-03T13:05:52.446Z,18.75
2022-11-03T13:08:23.270Z,11.48
2022-11-03T13:10:53.952Z,21.25
2022-11-03T13:13:22.400Z,21.88
2022-11-03T13:15:53.091Z,16.88
2022-11-03T13:18:22.366Z,21.50
2022-11-03T13:20:50.786Z,24.67
2022-11-03T13:23:26.155Z,23.40
2022-11-03T13:26:00.462Z,22.50
2022-11-03T13:28:34.604Z,17.50
2022-11-03T13:31:03.361Z,13.53
2022-11-03T13:33:34.735Z,15.63
2022-11-03T13:36:03.441Z,19.00
2022-11-03T13:38:31.878Z,20.03
2022-11-03T13:41:08.472Z,19.10
2022-11-03T13:43:45.875Z,14.93
2022-11-03T13:46:15.400Z,18.70
2022-11-03T13:49:42.307Z,16.13
2022-11-03T13:51:44.046Z,21.93
2022-11-03T13:59:59.075Z,13.63
2022-11-03T14:05:30.102Z,18.23
2022-11-03T14:07:58.363Z,19.57
2022-11-03T14:10:26.618Z,14.57
2022-11-03T14:12:58.934Z,16.40
2022-11-03T14:15:29.600Z,20.33
2022-11-03T14:17:58.218Z,20.93
2022-11-03T14:22:54.962Z,29.23
2022-11-03T14:25:23.411Z,16.23
2022-11-03T14:27:51.930Z,18.43
2022-11-03T14:30:21.732Z,14.40
2022-11-03T14:32:51.131Z,16.37
2022-11-03T14:35:23.141Z,22.07
2022-11-03T14:37:51.557Z,12.90
2022-11-03T14:40:33.783Z,14.47
2022-11-03T14:43:02.167Z,19.17
2022-11-03T14:45:32.031Z,15.33
2022-11-03T14:48:00.483Z,16.20
2022-11-03T14:50:28.839Z,23.10
2022-11-03T14:52:59.816Z,23.13
2022-11-03T14:55:28.559Z,20.80
2022-11-03T14:57:56.899Z,21.10
2022-11-03T15:00:25.359Z,34.13
2022-11-03T15:02:55.204Z,21.07
2022-11-03T15:05:40.821Z,21.87
2022-11-03T15:08:09.667Z,18.37
2022-11-03T15:10:48.260Z,18.57
2022-11-03T15:13:16.808Z,25.30
2022-11-03T15:15:45.150Z,19.93
2022-11-03T15:18:15.009Z,20.00
2022-11-03T15:20:43.552Z,18.53
2022-11-03T15:26:01.727Z,25.50
2022-11-03T15:28:30.156Z,19.57
2022-11-03T15:30:58.559Z,22.20
2022-11-03T15:33:28.450Z,15.83
2022-11-03T15:35:56.966Z,19.47
2022-11-03T15:38:25.359Z,20.97
2022-11-03T15:40:54.249Z,25.70
2022-11-03T15:43:22.563Z,25.40
2022-11-03T15:45:51.021Z,23.77
2022-11-03T15:48:19.426Z,20.47
2022-11-03T15:50:49.334Z,23.87
2022-11-03T15:53:17.664Z,24.60
2022-11-03T15:55:46.094Z,19.93
2022-11-03T15:58:14.491Z,24.80
2022-11-03T16:00:43.905Z,28.20
2022-11-03T16:03:12.305Z,27.43
2022-11-03T16:05:40.915Z,22.57
2022-11-03T16:08:11.112Z,22.20
2022-11-03T16:10:42.772Z,18.77
2022-11-03T16:13:16.393Z,18.30
2022-11-03T16:15:44.685Z,21.83
2022-11-03T16:18:13.063Z,15.67
2022-11-03T16:20:41.339Z,19.73
2022-11-03T16:23:11.517Z,20.03
2022-11-03T16:25:39.910Z,33.07
2022-11-03T16:28:09.156Z,25.03
2022-11-03T16:30:38.810Z,19.73
2022-11-03T16:33:07.674Z,22.77
2022-11-03T16:35:36.371Z,31.43
2022-11-03T16:38:05.742Z,25.37
2022-11-03T16:40:39.119Z,26.73
2022-11-03T16:43:07.614Z,31.77
2022-11-03T16:45:37.914Z,20.80
2022-11-03T16:48:08.391Z,34.60
2022-11-03T16:51:02.289Z,27.60
2022-11-03T16:53:32.180Z,27.90
2022-11-03T16:56:01.960Z,20.93
2022-11-03T16:58:30.328Z,22.07
2022-11-03T17:00:58.949Z,24.57
2022-11-03T17:03:27.665Z,22.37
2022-11-03T17:05:58.421Z,21.43
2022-11-03T17:08:51.402Z,36.70
2022-11-03T17:11:36.112Z,25.67
2022-11-03T17:14:13.303Z,36.87
2022-11-03T17:16:45.611Z,33.23
2022-11-03T17:19:14.249Z,20.87
2022-11-03T17:21:42.799Z,29.83
2022-11-03T17:24:16.099Z,30.37
2022-11-03T17:26:55.764Z,29.53
2022-11-03T17:29:35.558Z,35.67
2022-11-03T17:32:10.733Z,48.17
2022-11-03T17:34:40.754Z,30.17
2022-11-03T17:37:15.499Z,41.97
2022-11-03T17:39:48.560Z,30.10
2022-11-03T17:42:24.753Z,33.00
2022-11-03T17:44:57.444Z,26.63
2022-11-03T17:47:27.039Z,27.23
2022-11-03T17:49:55.823Z,33.30
2022-11-03T17:52:28.638Z,30.37
2022-11-03T17:55:00.815Z,49.60
2022-11-03T17:57:31.637Z,41.10
2022-11-03T18:00:01.597Z,32.10
2022-11-03T18:02:32.959Z,33.07
2022-11-03T18:05:21.775Z,32.40
2022-11-03T18:07:50.769Z,30.63
2022-11-03T18:10:19.083Z,40.53
2022-11-03T18:13:09.865Z,24.83
2022-11-03T18:15:39.332Z,35.30
2022-11-03T18:18:14.625Z,25.63
2022-11-03T18:20:52.694Z,32.53
2022-11-03T18:23:23.655Z,38.93
2022-11-03T18:25:52.837Z,29.60
2022-11-03T18:28:23.154Z,22.63
2022-11-03T18:30:55.496Z,24.17
2022-11-03T18:33:27.010Z,28.53
2022-11-03T18:35:56.123Z,33.17
2022-11-03T18:38:29.246Z,36.50
2022-11-03T18:40:57.914Z,45.57
2022-11-03T18:43:29.937Z,49.83
2022-11-03T18:45:58.517Z,46.03
2022-11-03T18:48:26.987Z,35.47
2022-11-03T18:50:57.276Z,29.60
2022-11-03T18:53:30.089Z,30.27
2022-11-03T18:56:02.016Z,31.57
2022-11-03T18:58:34.433Z,28.43
2022-11-03T19:01:10.015Z,27.90
2022-11-03T19:03:38.729Z,34.20
2022-11-03T19:06:07.386Z,33.47
2022-11-03T19:08:36.058Z,37.57
2022-11-03T19:11:05.064Z,34.90
2022-11-03T19:13:38.424Z,34.90
2022-11-03T19:16:14.517Z,39.30
2022-11-03T19:18:44.247Z,25.53
2022-11-03T19:21:15.225Z,25.60
2022-11-03T19:23:47.868Z,26.70
2022-11-03T19:26:21.734Z,28.00
2022-11-03T19:28:55.444Z,27.97
2022-11-03T19:31:28.082Z,23.87
2022-11-03T19:33:57.964Z,40.53
2022-11-03T19:36:27.479Z,37.30
2022-11-03T19:39:17.591Z,36.57
2022-11-03T19:42:06.174Z,39.47
2022-11-03T19:44:36.627Z,32.43
2022-11-03T19:47:05.596Z,29.93
2022-11-03T19:49:35.620Z,24.50
2022-11-03T19:52:04.332Z,31.97
2022-11-03T19:54:32.800Z,34.60
2022-11-03T19:57:02.823Z,21.47
2022-11-03T19:59:31.670Z,26.40
2022-11-03T20:02:02.332Z,23.70
2022-11-03T20:04:41.923Z,23.87
2022-11-03T20:07:14.404Z,22.80
2022-11-03T20:09:43.592Z,20.03
2022-11-03T20:12:19.082Z,29.03
2022-11-03T20:14:47.673Z,48.10
2022-11-03T20:17:21.563Z,24.07
2022-11-03T20:19:50.220Z,36.33
2022-11-03T20:22:24.027Z,38.57
2022-11-03T20:24:56.535Z,30.50
2022-11-03T20:27:26.370Z,23.80
2022-11-03T20:29:56.942Z,35.50
2022-11-03T20:32:27.919Z,22.07
2022-11-03T20:34:57.093Z,17.67
2022-11-03T20:37:26.289Z,22.93
2022-11-03T20:39:55.353Z,31.10
2022-11-03T20:42:29.960Z,17.70
2022-11-03T20:44:59.651Z,36.10
2022-11-03T20:47:32.717Z,25.37
2022-11-03T20:50:01.421Z,25.03
2022-11-03T20:52:30.082Z,40.60
2022-11-03T20:54:58.707Z,41.37
2022-11-03T20:57:27.266Z,24.20
2022-11-03T20:59:55.801Z,17.27
2022-11-03T21:02:24.980Z,24.33
2022-11-03T21:04:55.143Z,22.40
2022-11-03T21:07:23.820Z,19.03
2022-11-03T21:09:52.396Z,19.27
2022-11-03T21:12:21.093Z,22.10
2022-11-03T21:15:03.419Z,25.57
2022-11-03T21:17:50.204Z,81.57
2022-11-03T21:20:20.232Z,14.30
2022-11-03T21:22:53.291Z,15.50
2022-11-03T21:25:24.640Z,18.97
2022-11-03T21:27:54.472Z,21.63
2022-11-03T21:30:24.297Z,42.17
2022-11-03T21:32:53.834Z,26.00
2022-11-03T21:35:24.622Z,29.93
2022-11-03T21:37:53.241Z,34.30
2022-11-03T21:40:21.882Z,50.47
2022-11-03T21:43:08.257Z,50.40
2022-11-03T21:45:37.640Z,35.60
2022-11-03T21:48:24.189Z,36.20
2022-11-03T21:50:54.700Z,43.70
2022-11-03T21:53:23.250Z,15.87
2022-11-03T21:55:52.258Z,14.83
2022-11-03T21:58:21.159Z,18.43
2022-11-03T22:00:49.888Z,16.60
2022-11-03T22:03:18.551Z,16.13
2022-11-03T22:05:47.192Z,23.60
2022-11-03T22:08:17.049Z,31.27
2022-11-03T22:10:46.616Z,30.80
2022-11-03T22:13:15.312Z,33.17
2022-11-03T22:16:01.513Z,41.40
2022-11-03T22:18:30.075Z,26.33
2022-11-03T22:21:16.942Z,15.83
2022-11-03T22:24:04.533Z,24.60
2022-11-03T22:26:53.398Z,18.30
2022-11-03T22:29:39.465Z,15.53
2022-11-03T22:32:15.232Z,18.17
2022-11-03T22:35:01.546Z,26.00
2022-11-03T22:40:16.324Z,16.00
2022-11-03T22:43:04.118Z,32.07
2022-11-03T22:45:50.950Z,21.60
2022-11-03T22:48:24.205Z,21.80
2022-11-03T22:51:02.583Z,20.17
2022-11-03T22:53:49.712Z,12.80
2022-11-03T22:56:20.824Z,11.77
2022-11-03T22:58:50.960Z,11.53
2022-11-03T23:01:21.482Z,15.47
2022-11-03T23:03:53.603Z,25.13
2022-11-03T23:06:26.214Z,18.40
2022-11-03T23:08:55.720Z,12.23
2022-11-03T23:11:27.294Z,10.57
2022-11-03T23:13:58.847Z,15.17
2022-11-03T23:16:30.627Z,13.50
2022-11-03T23:19:17.311Z,8.80
2022-11-03T23:21:50.139Z,10.40
2022-11-03T23:24:39.222Z,11.27
2022-11-03T23:27:12.415Z,11.07
2022-11-03T23:29:41.180Z,9.17
2022-11-03T23:32:09.699Z,15.20
2022-11-03T23:34:38.139Z,12.70
2022-11-03T23:37:06.636Z,15.00
2022-11-03T23:39:35.092Z,13.87
2022-11-03T23:42:03.874Z,23.07
2022-11-03T23:44:55.511Z,15.73
2022-11-03T23:47:42.690Z,11.53
2022-11-03T23:50:11.485Z,13.30
2022-11-03T23:52:41.356Z,14.30
2022-11-03T23:55:10.647Z,11.77
2022-11-03T23:57:56.411Z,16.00
